createdAt,value
2022-09-02T00:00:37.319Z,64.02
2022-09-02T00:01:37.345Z,64.22
2022-09-02T00:02:37.521Z,64.12
2022-09-02T00:03:37.460Z,64.22
2022-09-02T00:04:37.419Z,64.18
2022-09-02T00:05:37.446Z,64.12
2022-09-02T00:06:37.471Z,64.09
2022-09-02T00:07:37.497Z,64.09
2022-09-02T00:08:37.520Z,64.50
2022-09-02T00:09:37.547Z,64.47
2022-09-02T00:10:37.572Z,64.85
2022-09-02T00:11:37.598Z,64.76
2022-09-02T00:12:37.619Z,64.76
2022-09-02T00:13:37.645Z,64.76
2022-09-02T00:14:37.670Z,65.23
2022-09-02T00:15:37.695Z,65.05
2022-09-02T00:16:37.746Z,64.85
2022-09-02T00:17:37.745Z,65.52
2022-09-02T00:18:37.772Z,65.52
2022-09-02T00:19:37.798Z,65.52
2022-09-02T00:20:37.820Z,65.05
2022-09-02T00:21:37.845Z,65.05
2022-09-02T00:22:37.869Z,65.23
2022-09-02T00:23:37.894Z,65.42
2022-09-02T00:24:37.917Z,65.62
2022-09-02T00:25:37.943Z,65.81
2022-09-02T00:26:37.969Z,65.52
2022-09-02T00:27:37.996Z,65.52
2022-09-02T00:28:38.020Z,65.42
2022-09-02T00:29:38.047Z,65.91
2022-09-02T00:30:38.071Z,66.00
2022-09-02T00:31:38.144Z,66.19
2022-09-02T00:32:38.119Z,66.58
2022-09-02T00:33:38.145Z,65.91
2022-09-02T00:34:38.175Z,66.38
2022-09-02T00:35:38.194Z,66.58
2022-09-02T00:36:38.219Z,66.29
2022-09-02T00:37:38.242Z,66.58
2022-09-02T00:38:38.268Z,66.48
2022-09-02T00:39:38.293Z,66.67
2022-09-02T00:40:38.368Z,66.48
2022-09-02T00:41:38.347Z,66.29
2022-09-02T00:42:38.369Z,66.45
2022-09-02T00:43:38.398Z,66.29
2022-09-02T00:44:38.419Z,66.29
2022-09-02T00:45:38.485Z,66.38
2022-09-02T00:46:38.469Z,66.29
2022-09-02T00:47:38.494Z,66.38
2022-09-02T00:48:38.517Z,65.91
2022-09-02T00:49:38.541Z,66.29
2022-09-02T00:50:38.565Z,66.54
2022-09-02T00:51:38.592Z,66.64
2022-09-02T00:52:38.619Z,66.64
2022-09-02T00:53:38.688Z,66.45
2022-09-02T00:54:38.667Z,66.83
2022-09-02T00:55:38.693Z,66.93
2022-09-02T00:56:38.716Z,66.74
2022-09-02T00:57:38.742Z,66.83
2022-09-02T00:58:38.765Z,66.54
2022-09-02T00:59:38.791Z,66.64
2022-09-02T01:00:38.841Z,66.45
2022-09-02T01:01:38.979Z,66.64
2022-09-02T01:02:38.929Z,67.02
2022-09-02T01:03:38.891Z,66.83
2022-09-02T01:04:38.913Z,66.93
2022-09-02T01:05:43.680Z,67.11
2022-09-02T01:06:38.962Z,67.02
2022-09-02T01:07:38.989Z,67.31
2022-09-02T01:08:39.014Z,67.41
2022-09-02T01:09:39.049Z,67.79
2022-09-02T01:10:39.060Z,67.69
2022-09-02T01:11:39.094Z,67.50
2022-09-02T01:12:39.113Z,67.50
2022-09-02T01:13:39.138Z,67.69
2022-09-02T01:14:39.161Z,67.79
2022-09-02T01:15:39.185Z,67.79
2022-09-02T01:16:39.295Z,67.88
2022-09-02T01:17:39.232Z,67.79
2022-09-02T01:18:39.258Z,68.07
2022-09-02T01:19:39.283Z,68.27
2022-09-02T01:20:39.309Z,68.36
2022-09-02T01:21:39.328Z,68.46
2022-09-02T01:22:39.359Z,68.36
2022-09-02T01:23:39.381Z,67.98
2022-09-02T01:24:39.405Z,68.36
2022-09-02T01:25:39.432Z,68.27
2022-09-02T01:26:39.458Z,68.36
2022-09-02T01:27:39.481Z,68.55
2022-09-02T01:28:39.507Z,68.04
2022-09-02T01:29:39.532Z,68.36
2022-09-02T01:30:39.550Z,68.13
2022-09-02T01:31:39.616Z,68.17
2022-09-02T01:32:39.605Z,68.17
2022-09-02T01:33:39.629Z,68.17
2022-09-02T01:34:39.651Z,68.36
2022-09-02T01:35:39.679Z,68.46
2022-09-02T01:36:39.702Z,68.17
2022-09-02T01:37:39.731Z,68.17
2022-09-02T01:38:39.753Z,67.98
2022-09-02T01:39:39.774Z,68.46
2022-09-02T01:40:39.849Z,68.74
2022-09-02T01:41:39.826Z,68.74
2022-09-02T01:42:39.850Z,68.36
2022-09-02T01:43:39.874Z,68.84
2022-09-02T01:44:39.894Z,68.65
2022-09-02T01:45:39.923Z,68.71
2022-09-02T01:46:40.000Z,68.74
2022-09-02T01:47:39.970Z,68.65
2022-09-02T01:48:39.998Z,68.55
2022-09-02T01:49:47.246Z,68.84
2022-09-02T01:51:44.510Z,69.42
2022-09-02T01:52:44.048Z,69.32
2022-09-02T01:54:48.065Z,69.23
2022-09-02T01:55:48.082Z,69.23
2022-09-02T01:57:52.575Z,69.09
2022-09-02T01:58:52.729Z,68.94
2022-09-02T02:00:45.206Z,68.90
2022-09-02T02:01:45.111Z,69.32
2022-09-02T02:03:49.569Z,69.13
2022-09-02T02:04:49.106Z,69.23
2022-09-02T02:06:53.607Z,68.90
2022-09-02T02:07:53.146Z,68.90
2022-09-02T02:09:57.164Z,69.57
2022-09-02T02:10:57.179Z,69.67
2022-09-02T02:13:01.668Z,70.05
2022-09-02T02:14:01.212Z,69.86
2022-09-02T02:16:05.306Z,69.38
2022-09-02T02:17:05.242Z,69.38
2022-09-02T02:19:09.735Z,69.86
2022-09-02T02:20:09.269Z,70.15
2022-09-02T02:22:13.289Z,70.34
2022-09-02T02:23:13.409Z,69.95
2022-09-02T02:25:17.794Z,69.95
2022-09-02T02:26:17.329Z,70.24
2022-09-02T02:28:21.339Z,70.24
2022-09-02T02:29:21.355Z,70.72
2022-09-02T02:31:14.875Z,70.24
2022-09-02T02:32:14.316Z,70.34
2022-09-02T02:34:18.335Z,70.72
2022-09-02T02:35:18.351Z,70.91
2022-09-02T02:37:25.499Z,70.81
2022-09-02T02:38:22.382Z,71.30
2022-09-02T02:40:15.353Z,70.97
2022-09-02T02:41:15.334Z,70.97
2022-09-02T02:43:19.862Z,70.91
2022-09-02T02:44:19.364Z,70.97
2022-09-02T02:46:23.908Z,71.20
2022-09-02T02:47:23.409Z,71.01
2022-09-02T02:49:27.421Z,71.36
2022-09-02T02:50:27.434Z,71.20
2022-09-02T02:52:31.930Z,71.36
2022-09-02T02:53:31.469Z,71.30
2022-09-02T02:55:35.484Z,71.20
2022-09-02T02:56:35.504Z,71.45
2022-09-02T02:58:39.993Z,71.26
2022-09-02T02:59:39.537Z,71.93
2022-09-02T03:01:43.630Z,71.73
2022-09-02T03:02:43.758Z,72.50
2022-09-02T03:04:48.051Z,72.12
2022-09-02T03:05:47.592Z,71.93
2022-09-02T03:07:51.599Z,72.50
2022-09-02T03:08:51.621Z,72.41
2022-09-02T03:10:45.098Z,72.79
2022-09-02T03:11:44.569Z,72.69
2022-09-02T03:13:48.584Z,73.36
2022-09-02T03:14:48.603Z,73.17
2022-09-02T03:16:53.091Z,72.85
2022-09-02T03:17:52.625Z,73.75
2022-09-02T03:19:56.639Z,73.55
2022-09-02T03:20:56.651Z,73.65
2022-09-02T03:23:01.147Z,73.27
2022-09-02T03:24:00.684Z,73.65
2022-09-02T03:26:04.705Z,73.99
2022-09-02T03:27:04.717Z,73.80
2022-09-02T03:29:09.217Z,73.94
2022-09-02T03:30:08.750Z,74.19
2022-09-02T03:32:12.766Z,74.28
2022-09-02T03:33:12.784Z,74.19
2022-09-02T03:35:17.271Z,74.09
2022-09-02T03:36:16.806Z,73.99
2022-09-02T03:38:20.820Z,74.28
2022-09-02T03:39:20.840Z,74.57
2022-09-02T03:41:14.315Z,74.85
2022-09-02T03:42:19.565Z,75.05
2022-09-02T03:44:17.802Z,74.76
2022-09-02T03:45:17.825Z,74.85
2022-09-02T03:47:22.315Z,74.95
2022-09-02T03:48:21.853Z,74.76
2022-09-02T03:50:15.324Z,75.34
2022-09-02T03:51:14.801Z,75.14
2022-09-02T03:53:19.865Z,75.24
2022-09-02T03:54:18.826Z,75.71
2022-09-02T03:56:23.320Z,75.62
2022-09-02T03:57:22.853Z,75.62
2022-09-02T03:59:26.875Z,76.10
2022-09-02T04:00:26.891Z,75.91
2022-09-02T04:02:31.502Z,75.71
2022-09-02T04:03:30.920Z,75.81
2022-09-02T04:05:34.929Z,75.81
2022-09-02T04:06:34.954Z,76.20
2022-09-02T04:08:39.443Z,76.39
2022-09-02T04:09:41.434Z,76.00
2022-09-02T04:11:42.985Z,76.00
2022-09-02T04:12:43.002Z,75.91
2022-09-02T04:14:47.492Z,75.87
2022-09-02T04:15:47.047Z,75.96
2022-09-02T04:17:40.172Z,76.45
2022-09-02T04:18:40.183Z,76.06
2022-09-02T04:20:33.657Z,76.35
2022-09-02T04:21:33.136Z,76.82
2022-09-02T04:23:37.150Z,77.01
2022-09-02T04:24:37.167Z,76.82
2022-09-02T04:26:45.410Z,76.73
2022-09-02T04:27:41.196Z,76.82
2022-09-02T04:29:45.222Z,77.21
2022-09-02T04:30:45.237Z,77.40
2022-09-02T04:32:49.728Z,77.01
2022-09-02T04:33:49.271Z,77.11
2022-09-02T04:35:53.278Z,77.40
2022-09-02T04:36:53.291Z,76.92
2022-09-02T04:38:57.781Z,77.01
2022-09-02T04:39:57.324Z,77.21
2022-09-02T04:42:01.335Z,77.59
2022-09-02T04:43:01.347Z,77.50
2022-09-02T04:45:05.841Z,77.50
2022-09-02T04:46:05.435Z,77.59
2022-09-02T04:48:09.380Z,78.55
2022-09-02T04:49:09.402Z,78.16
2022-09-02T04:51:02.876Z,78.07
2022-09-02T04:52:02.351Z,78.89
2022-09-02T04:54:06.369Z,78.74
2022-09-02T04:55:06.388Z,78.64
2022-09-02T04:57:10.880Z,78.70
2022-09-02T04:58:10.426Z,79.12
2022-09-02T05:00:14.432Z,79.08
2022-09-02T05:01:14.499Z,79.17
2022-09-02T05:03:18.939Z,79.56
2022-09-02T05:04:18.479Z,79.41
2022-09-02T05:06:22.487Z,79.31
2022-09-02T05:07:22.501Z,79.22
2022-09-02T05:09:26.994Z,79.12
2022-09-02T05:10:26.527Z,79.02
2022-09-02T05:12:30.548Z,79.02
2022-09-02T05:13:30.567Z,78.93
2022-09-02T05:15:35.115Z,79.41
2022-09-02T05:16:34.593Z,78.93
2022-09-02T05:18:39.087Z,78.55
2022-09-02T05:19:38.624Z,78.93
2022-09-02T05:21:43.115Z,78.16
2022-09-02T05:22:42.654Z,78.78
2022-09-02T05:24:46.681Z,78.01
2022-09-02T05:25:46.684Z,78.39
2022-09-02T05:27:51.174Z,78.11
2022-09-02T05:28:50.717Z,78.20
2022-09-02T05:30:43.673Z,77.82
2022-09-02T05:31:43.673Z,77.92
2022-09-02T05:33:48.170Z,77.72
2022-09-02T05:34:47.710Z,77.06
2022-09-02T05:36:52.200Z,77.06
2022-09-02T05:37:51.743Z,76.57
2022-09-02T05:39:55.760Z,76.96
2022-09-02T05:40:55.811Z,76.57
2022-09-02T05:43:00.663Z,77.48
2022-09-02T05:44:01.588Z,77.00
2022-09-02T05:46:03.859Z,76.42
2022-09-02T05:47:03.828Z,76.71
2022-09-02T05:49:08.321Z,76.71
2022-09-02T05:50:07.925Z,76.23
2022-09-02T05:52:11.889Z,76.33
2022-09-02T05:53:14.377Z,76.42
2022-09-02T05:55:05.367Z,76.23
2022-09-02T05:56:05.042Z,76.56
2022-09-02T05:58:09.066Z,76.65
2022-09-02T05:59:09.081Z,76.65
2022-09-02T06:01:02.565Z,76.08
2022-09-02T06:02:02.063Z,76.27
2022-09-02T06:04:06.052Z,75.98
2022-09-02T06:05:06.069Z,75.51
2022-09-02T06:07:11.797Z,75.89
2022-09-02T06:08:10.104Z,75.54
2022-09-02T06:10:14.117Z,74.52
2022-09-02T06:11:14.139Z,74.33
2022-09-02T06:13:18.660Z,72.78
2022-09-02T06:14:18.164Z,71.44
2022-09-02T06:16:11.327Z,70.13
2022-09-02T06:17:11.320Z,69.87
2022-09-02T06:19:19.688Z,67.80
2022-09-02T06:20:15.354Z,67.22
2022-09-02T06:22:19.372Z,65.81
2022-09-02T06:23:19.388Z,65.62
2022-09-02T06:25:12.872Z,64.56
2022-09-02T06:26:12.552Z,64.31
2022-09-02T06:28:16.571Z,64.50
2022-09-02T06:29:16.583Z,63.28
2022-09-02T06:31:10.130Z,63.18
2022-09-02T06:32:09.549Z,63.28
2022-09-02T06:34:13.611Z,62.35
2022-09-02T06:35:13.632Z,62.23
2022-09-02T06:37:18.088Z,61.97
2022-09-02T06:38:17.629Z,61.80
2022-09-02T06:40:21.709Z,60.39
2022-09-02T06:41:21.669Z,60.30
2022-09-02T06:43:26.170Z,60.61
2022-09-02T06:44:25.723Z,60.32
2022-09-02T06:46:30.251Z,58.52
2022-09-02T06:47:29.762Z,58.52
2022-09-02T06:49:33.790Z,57.85
2022-09-02T06:50:33.818Z,57.97
2022-09-02T06:52:38.314Z,57.56
2022-09-02T06:53:37.871Z,57.92
2022-09-02T06:55:41.886Z,58.75
2022-09-02T06:56:45.916Z,59.91
2022-09-02T06:58:46.405Z,60.27
2022-09-02T06:59:45.953Z,60.27
2022-09-02T07:01:39.234Z,61.68
2022-09-02T07:02:39.110Z,61.10
2022-09-02T07:04:43.608Z,61.77
2022-09-02T07:05:43.171Z,62.16
2022-09-02T07:07:47.184Z,63.22
2022-09-02T07:08:47.204Z,63.18
2022-09-02T07:10:40.689Z,63.57
2022-09-02T07:11:40.170Z,63.67
2022-09-02T07:13:44.678Z,63.57
2022-09-02T07:14:44.270Z,64.05
2022-09-02T07:16:48.288Z,64.43
2022-09-02T07:17:48.257Z,64.43
2022-09-02T07:19:52.759Z,64.34
2022-09-02T07:20:52.302Z,64.34
2022-09-02T07:22:45.496Z,63.86
2022-09-02T07:23:45.473Z,63.95
2022-09-02T07:25:38.950Z,63.86
2022-09-02T07:26:38.678Z,63.95
2022-09-02T07:28:42.678Z,64.25
2022-09-02T07:29:42.691Z,64.05
2022-09-02T07:30:42.788Z,64.63
2022-09-02T07:31:42.747Z,64.15
2022-09-02T07:32:42.809Z,64.15
2022-09-02T07:33:42.808Z,64.37
2022-09-02T07:34:42.830Z,64.66
2022-09-02T07:35:42.859Z,63.99
2022-09-02T07:36:42.887Z,64.08
2022-09-02T07:37:42.932Z,63.89
2022-09-02T07:38:42.942Z,63.60
2022-09-02T07:39:42.965Z,63.31
2022-09-02T07:40:43.043Z,63.31
2022-09-02T07:41:43.021Z,62.74
2022-09-02T07:42:43.141Z,63.41
2022-09-02T07:43:43.077Z,63.12
2022-09-02T07:44:43.107Z,63.22
2022-09-02T07:45:43.204Z,63.31
2022-09-02T07:46:43.165Z,63.22
2022-09-02T07:47:43.192Z,63.60
2022-09-02T07:48:43.219Z,63.73
2022-09-02T07:50:43.276Z,62.96
2022-09-02T07:51:43.303Z,62.87
2022-09-02T07:52:43.335Z,62.96
2022-09-02T07:53:43.359Z,63.44
2022-09-02T07:54:43.387Z,62.67
2022-09-02T07:55:43.416Z,61.90
2022-09-02T07:56:43.446Z,62.22
2022-09-02T07:57:43.465Z,62.22
2022-09-02T07:58:43.492Z,62.38
2022-09-02T07:59:43.528Z,62.03
2022-09-02T08:00:43.548Z,62.22
2022-09-02T08:02:43.745Z,61.45
2022-09-02T08:03:43.636Z,61.25
2022-09-02T08:04:43.673Z,61.16
2022-09-02T08:05:43.692Z,60.80
2022-09-02T08:06:43.720Z,60.49
2022-09-02T08:07:43.745Z,60.68
2022-09-02T08:08:43.781Z,60.00
2022-09-02T08:09:43.808Z,59.94
2022-09-02T08:10:43.828Z,60.13
2022-09-02T08:11:43.870Z,60.71
2022-09-02T08:12:43.902Z,60.13
2022-09-02T08:13:43.920Z,60.42
2022-09-02T08:14:43.944Z,60.32
2022-09-02T08:15:43.976Z,60.52
2022-09-02T08:16:44.067Z,60.32
2022-09-02T08:17:44.029Z,60.42
2022-09-02T08:18:44.060Z,60.03
2022-09-02T08:19:44.086Z,60.42
2022-09-02T08:20:44.110Z,60.42
2022-09-02T08:21:44.144Z,60.55
2022-09-02T08:22:46.729Z,60.55
2022-09-02T08:23:44.780Z,60.64
2022-09-02T08:24:44.227Z,60.35
2022-09-02T08:25:44.260Z,60.35
2022-09-02T08:26:44.285Z,60.45
2022-09-02T08:27:44.359Z,59.78
2022-09-02T08:28:44.355Z,60.26
2022-09-02T08:29:44.371Z,59.68
2022-09-02T08:30:44.410Z,59.30
2022-09-02T08:31:44.467Z,59.10
2022-09-02T08:32:44.455Z,58.23
2022-09-02T08:33:44.483Z,58.23
2022-09-02T08:34:44.533Z,59.20
2022-09-02T08:35:44.553Z,59.13
2022-09-02T08:36:47.573Z,59.48
2022-09-02T08:37:44.599Z,58.75
2022-09-02T08:38:51.785Z,59.23
2022-09-02T08:41:42.031Z,58.17
2022-09-02T08:42:41.586Z,57.87
2022-09-02T08:44:45.621Z,57.49
2022-09-02T08:45:45.700Z,58.07
2022-09-02T08:47:50.131Z,56.81
2022-09-02T08:48:49.689Z,56.81
2022-09-02T08:50:42.633Z,56.72
2022-09-02T08:51:42.652Z,56.14
2022-09-02T08:53:47.146Z,56.43
2022-09-02T08:54:46.729Z,56.14
2022-09-02T08:56:50.733Z,56.04
2022-09-02T08:57:50.751Z,56.26
2022-09-02T08:59:55.244Z,56.56
2022-09-02T09:00:54.873Z,56.07
2022-09-02T09:02:58.827Z,55.68
2022-09-02T09:03:58.849Z,56.07
2022-09-02T09:06:03.341Z,56.16
2022-09-02T09:07:02.922Z,56.36
2022-09-02T09:09:07.415Z,55.98
2022-09-02T09:10:06.979Z,56.10
2022-09-02T09:12:11.002Z,55.13
2022-09-02T09:13:11.026Z,55.23
2022-09-02T09:15:15.520Z,54.84
2022-09-02T09:16:15.153Z,54.84
2022-09-02T09:18:19.228Z,55.04
2022-09-02T09:19:19.160Z,54.84
2022-09-02T09:21:12.674Z,54.84
2022-09-02T09:22:12.131Z,54.94
2022-09-02T09:24:16.158Z,54.17
2022-09-02T09:25:16.178Z,54.36
2022-09-02T09:27:20.666Z,54.07
2022-09-02T09:28:20.227Z,54.27
2022-09-02T09:30:15.526Z,54.27
2022-09-02T09:31:13.219Z,54.10
2022-09-02T09:33:17.771Z,53.81
2022-09-02T09:34:17.236Z,53.61
2022-09-02T09:36:21.273Z,53.23
2022-09-02T09:37:21.291Z,53.42
2022-09-02T09:39:25.788Z,53.81
2022-09-02T09:40:25.371Z,53.91
2022-09-02T09:42:29.372Z,53.42
2022-09-02T09:43:29.390Z,53.13
2022-09-02T09:45:33.950Z,53.42
2022-09-02T09:46:33.438Z,53.42
2022-09-02T09:48:37.462Z,53.42
2022-09-02T09:49:37.482Z,53.52
2022-09-02T09:51:49.720Z,53.61
2022-09-02T09:52:41.562Z,53.23
2022-09-02T09:54:45.571Z,53.71
2022-09-02T09:55:45.589Z,53.71
2022-09-02T09:56:45.617Z,53.61
2022-09-02T09:57:45.859Z,53.52
2022-09-02T09:58:45.676Z,53.71
2022-09-02T09:59:45.704Z,53.42
2022-09-02T10:00:45.754Z,53.52
2022-09-02T10:01:45.819Z,53.23
2022-09-02T10:02:45.794Z,53.13
2022-09-02T10:03:45.820Z,53.52
2022-09-02T10:04:45.929Z,53.81
2022-09-02T10:05:45.882Z,53.42
2022-09-02T10:06:45.914Z,54.03
2022-09-02T10:07:45.943Z,53.64
2022-09-02T10:08:45.969Z,53.45
2022-09-02T10:09:46.001Z,52.97
2022-09-02T10:10:46.031Z,52.97
2022-09-02T10:11:46.061Z,52.29
2022-09-02T10:12:46.090Z,52.77
2022-09-02T10:13:46.121Z,52.77
2022-09-02T10:14:46.155Z,53.06
2022-09-02T10:15:46.183Z,53.25
2022-09-02T10:16:46.278Z,53.35
2022-09-02T10:17:46.239Z,53.35
2022-09-02T10:18:46.268Z,53.83
2022-09-02T10:19:46.321Z,53.25
2022-09-02T10:20:58.556Z,53.45
2022-09-02T10:21:46.356Z,52.77
2022-09-02T10:22:58.676Z,53.16
2022-09-02T10:23:46.433Z,52.99
2022-09-02T10:24:46.478Z,52.99
2022-09-02T10:25:46.478Z,52.12
2022-09-02T10:26:46.506Z,51.73
2022-09-02T10:27:46.551Z,51.06
2022-09-02T10:28:46.564Z,51.18
2022-09-02T10:29:46.600Z,50.60
2022-09-02T10:30:46.633Z,50.40
2022-09-02T10:31:46.716Z,50.31
2022-09-02T10:32:46.689Z,49.15
2022-09-02T10:33:46.720Z,49.24
2022-09-02T10:34:46.753Z,49.27
2022-09-02T10:35:46.786Z,49.07
2022-09-02T10:36:46.810Z,48.88
2022-09-02T10:37:46.843Z,48.97
2022-09-02T10:38:46.877Z,49.39
2022-09-02T10:39:46.903Z,48.42
2022-09-02T10:40:47.018Z,47.94
2022-09-02T10:41:46.979Z,47.06
2022-09-02T10:42:46.996Z,46.99
2022-09-02T10:43:47.024Z,47.09
2022-09-02T10:44:47.057Z,45.73
2022-09-02T10:45:47.100Z,45.73
2022-09-02T10:46:47.168Z,45.64
2022-09-02T10:47:47.192Z,46.31
2022-09-02T10:48:47.182Z,46.24
2022-09-02T10:49:47.215Z,45.75
2022-09-02T10:50:49.534Z,44.86
2022-09-02T10:51:47.278Z,44.67
2022-09-02T10:52:47.308Z,44.96
2022-09-02T10:53:47.344Z,44.96
2022-09-02T10:54:47.369Z,44.67
2022-09-02T10:55:47.404Z,45.64
2022-09-02T10:56:47.429Z,45.25
2022-09-02T10:57:47.462Z,44.67
2022-09-02T10:58:47.542Z,44.86
2022-09-02T10:59:47.526Z,44.86
2022-09-02T11:00:47.571Z,45.05
2022-09-02T11:01:47.589Z,44.47
2022-09-02T11:02:47.619Z,44.96
2022-09-02T11:03:47.710Z,44.67
2022-09-02T11:04:47.680Z,44.76
2022-09-02T11:05:47.712Z,44.47
2022-09-02T11:07:03.791Z,44.27
2022-09-02T11:07:47.770Z,44.57
2022-09-02T11:08:47.801Z,44.47
2022-09-02T11:09:47.837Z,44.96
2022-09-02T11:10:47.895Z,44.76
2022-09-02T11:11:47.894Z,44.76
2022-09-02T11:12:47.929Z,44.47
2022-09-02T11:13:47.960Z,44.18
2022-09-02T11:14:47.992Z,43.41
2022-09-02T11:15:48.058Z,44.18
2022-09-02T11:16:48.055Z,44.47
2022-09-02T11:17:48.078Z,44.27
2022-09-02T11:18:48.114Z,43.99
2022-09-02T11:19:48.146Z,44.27
2022-09-02T11:20:48.176Z,44.37
2022-09-02T11:21:48.209Z,44.20
2022-09-02T11:22:48.235Z,44.20
2022-09-02T11:23:48.264Z,44.40
2022-09-02T11:24:48.301Z,43.82
2022-09-02T11:25:48.351Z,43.04
2022-09-02T11:26:48.359Z,43.43
2022-09-02T11:27:48.395Z,43.52
2022-09-02T11:28:48.421Z,43.52
2022-09-02T11:29:48.452Z,44.01
2022-09-02T11:30:48.582Z,43.84
2022-09-02T11:31:48.519Z,43.84
2022-09-02T11:32:48.552Z,43.35
2022-09-02T11:33:48.633Z,43.35
2022-09-02T11:34:48.608Z,43.16
2022-09-02T11:35:48.675Z,43.04
2022-09-02T11:36:48.678Z,42.55
2022-09-02T11:37:48.701Z,43.04
2022-09-02T11:38:48.737Z,43.13
2022-09-02T11:39:54.381Z,43.72
2022-09-02T11:41:32.542Z,43.52
2022-09-02T11:41:48.874Z,42.94
2022-09-02T11:42:48.879Z,42.07
2022-09-02T11:43:48.966Z,42.17
2022-09-02T11:44:52.624Z,42.75
2022-09-02T11:45:49.065Z,42.85
2022-09-02T11:46:49.092Z,42.55
2022-09-02T11:47:49.021Z,41.88
2022-09-02T11:48:49.050Z,41.39
2022-09-02T11:49:49.080Z,41.78
2022-09-02T11:50:49.113Z,41.39
2022-09-02T11:51:49.145Z,41.00
2022-09-02T11:52:49.175Z,40.42
2022-09-02T11:53:49.205Z,39.67
2022-09-02T11:54:49.237Z,39.67
2022-09-02T11:55:49.272Z,39.67
2022-09-02T11:56:49.305Z,39.18
2022-09-02T11:57:49.329Z,39.28
2022-09-02T11:58:49.370Z,38.79
2022-09-02T11:59:49.397Z,38.40
2022-09-02T12:00:49.430Z,38.40
2022-09-02T12:01:49.462Z,38.31
2022-09-02T12:02:49.488Z,37.15
2022-09-02T12:04:16.209Z,37.63
2022-09-02T12:04:59.885Z,38.50
2022-09-02T12:05:49.674Z,38.70
2022-09-02T12:06:49.746Z,38.89
2022-09-02T12:07:49.649Z,39.37
2022-09-02T12:08:49.681Z,39.67
2022-09-02T12:09:49.729Z,40.44
2022-09-02T12:10:49.754Z,40.25
2022-09-02T12:11:49.772Z,39.86
2022-09-02T12:12:51.816Z,39.59
2022-09-02T12:14:49.869Z,38.81
2022-09-02T12:15:49.937Z,37.65
2022-09-02T12:16:49.936Z,37.94
2022-09-02T12:17:49.965Z,37.66
2022-09-02T12:18:49.998Z,37.86
2022-09-02T12:19:50.030Z,37.86
2022-09-02T12:20:51.359Z,38.62
2022-09-02T12:21:50.090Z,38.42
2022-09-02T12:22:50.126Z,38.64
2022-09-02T12:23:50.156Z,38.23
2022-09-02T12:24:50.193Z,38.42
2022-09-02T12:25:50.218Z,38.42
2022-09-02T12:26:50.254Z,38.91
2022-09-02T12:27:50.290Z,39.41
2022-09-02T12:28:50.317Z,38.44
2022-09-02T12:29:52.148Z,38.34
2022-09-02T12:30:50.384Z,38.44
2022-09-02T12:31:50.498Z,39.22
2022-09-02T12:32:50.450Z,38.93
2022-09-02T12:33:50.479Z,38.73
2022-09-02T12:34:50.511Z,39.12
2022-09-02T12:35:50.543Z,39.22
2022-09-02T12:36:50.577Z,39.51
2022-09-02T12:37:50.606Z,38.34
2022-09-02T12:38:50.639Z,38.06
2022-09-02T12:39:50.674Z,38.65
2022-09-02T12:40:50.774Z,38.17
2022-09-02T12:41:50.740Z,37.49
2022-09-02T12:42:50.769Z,37.30
2022-09-02T12:43:50.815Z,36.52
2022-09-02T12:44:50.910Z,36.71
2022-09-02T12:45:50.878Z,36.89
2022-09-02T12:46:50.945Z,37.10
2022-09-02T12:47:50.935Z,37.20
2022-09-02T12:48:50.987Z,37.37
2022-09-02T12:49:51.000Z,37.47
2022-09-02T12:50:51.035Z,37.47
2022-09-02T12:51:51.061Z,37.47
2022-09-02T12:52:51.102Z,37.28
2022-09-02T12:53:51.137Z,37.96
2022-09-02T12:54:51.173Z,37.66
2022-09-02T12:55:51.199Z,37.08
2022-09-02T12:56:51.230Z,37.16
2022-09-02T12:57:51.261Z,37.08
2022-09-02T12:58:51.296Z,36.87
2022-09-02T12:59:51.328Z,36.87
2022-09-02T13:00:51.360Z,37.26
2022-09-02T13:01:51.544Z,37.16
2022-09-02T13:02:51.426Z,36.99
2022-09-02T13:03:51.457Z,37.28
2022-09-02T13:04:51.489Z,37.08
2022-09-02T13:05:51.520Z,36.99
2022-09-02T13:06:51.548Z,37.08
2022-09-02T13:07:51.587Z,36.79
2022-09-02T13:08:51.620Z,36.79
2022-09-02T13:09:51.649Z,36.69
2022-09-02T13:10:51.680Z,37.07
2022-09-02T13:11:51.718Z,37.16
2022-09-02T13:12:51.747Z,37.07
2022-09-02T13:13:51.774Z,37.35
2022-09-02T13:14:51.808Z,37.05
2022-09-02T13:15:51.859Z,37.63
2022-09-02T13:16:51.883Z,37.92
2022-09-02T13:17:51.930Z,37.92
2022-09-02T13:18:51.937Z,37.63
2022-09-02T13:19:51.973Z,37.53
2022-09-02T13:20:55.791Z,38.13
2022-09-02T13:21:52.031Z,37.74
2022-09-02T13:22:52.061Z,37.07
2022-09-02T13:23:52.095Z,37.07
2022-09-02T13:24:52.177Z,37.18
2022-09-02T13:25:52.162Z,37.18
2022-09-02T13:26:52.191Z,36.50
2022-09-02T13:27:52.226Z,35.92
2022-09-02T13:28:52.257Z,35.74
2022-09-02T13:29:52.305Z,35.94
2022-09-02T13:30:52.343Z,36.13
2022-09-02T13:31:52.355Z,35.94
2022-09-02T13:32:52.388Z,35.94
2022-09-02T13:33:52.417Z,35.76
2022-09-02T13:34:52.447Z,35.47
2022-09-02T13:35:52.483Z,35.37
2022-09-02T13:36:52.518Z,35.37
2022-09-02T13:37:52.662Z,35.47
2022-09-02T13:38:52.624Z,35.08
2022-09-02T13:39:52.614Z,35.17
2022-09-02T13:40:52.651Z,35.17
2022-09-02T13:41:52.679Z,35.49
2022-09-02T13:42:52.714Z,35.49
2022-09-02T13:43:52.747Z,35.39
2022-09-02T13:44:52.785Z,34.80
2022-09-02T13:45:52.962Z,34.42
2022-09-02T13:46:52.846Z,34.03
2022-09-02T13:47:52.881Z,33.95
2022-09-02T13:48:52.921Z,33.75
2022-09-02T13:49:52.956Z,34.03
2022-09-02T13:50:52.979Z,34.22
2022-09-02T13:51:53.011Z,34.14
2022-09-02T13:54:21.584Z,34.14
2022-09-02T13:54:53.110Z,33.46
2022-09-02T13:55:53.146Z,33.06
2022-09-02T13:56:53.179Z,33.73
2022-09-02T13:57:53.229Z,33.73
2022-09-02T13:58:53.241Z,34.42
2022-09-02T13:59:53.280Z,34.61
2022-09-02T14:00:53.783Z,34.61
2022-09-02T14:01:53.533Z,34.69
2022-09-02T14:02:53.497Z,35.27
2022-09-02T14:03:53.502Z,35.27
2022-09-02T14:04:53.438Z,35.27
2022-09-02T14:05:53.476Z,34.98
2022-09-02T14:06:53.514Z,35.37
2022-09-02T14:07:53.545Z,35.66
2022-09-02T14:08:53.576Z,35.27
2022-09-02T14:09:53.627Z,35.17
2022-09-02T14:10:53.638Z,35.17
2022-09-02T14:11:53.674Z,35.17
2022-09-02T14:12:53.702Z,34.69
2022-09-02T14:13:53.739Z,34.98
2022-09-02T14:14:53.770Z,34.59
2022-09-02T14:15:53.911Z,35.08
2022-09-02T14:16:53.838Z,34.88
2022-09-02T14:17:53.872Z,34.88
2022-09-02T14:18:53.900Z,34.67
2022-09-02T14:19:53.937Z,34.79
2022-09-02T14:20:53.970Z,34.58
2022-09-02T14:21:54.000Z,35.08
2022-09-02T14:22:54.032Z,34.79
2022-09-02T14:23:54.066Z,34.88
2022-09-02T14:24:54.097Z,34.88
2022-09-02T14:25:54.132Z,35.27
2022-09-02T14:26:54.169Z,35.08
2022-09-02T14:27:54.198Z,34.79
2022-09-02T14:28:54.229Z,34.59
2022-09-02T14:29:54.260Z,34.87
2022-09-02T14:30:54.304Z,34.97
2022-09-02T14:31:54.330Z,35.16
2022-09-02T14:32:54.413Z,34.87
2022-09-02T14:33:54.403Z,35.05
2022-09-02T14:34:54.422Z,35.53
2022-09-02T14:35:54.458Z,35.63
2022-09-02T14:36:54.513Z,35.82
2022-09-02T14:37:54.524Z,36.11
2022-09-02T14:38:54.556Z,36.29
2022-09-02T14:39:54.627Z,36.19
2022-09-02T14:40:54.626Z,36.38
2022-09-02T14:41:54.656Z,36.76
2022-09-02T14:42:57.776Z,37.15
2022-09-02T14:43:54.717Z,37.34
2022-09-02T14:44:54.748Z,37.63
2022-09-02T14:45:54.796Z,37.92
2022-09-02T14:46:54.826Z,38.12
2022-09-02T14:47:54.841Z,37.73
2022-09-02T14:48:54.879Z,37.24
2022-09-02T14:49:54.908Z,37.55
2022-09-02T14:50:57.215Z,37.24
2022-09-02T14:51:54.974Z,37.65
2022-09-02T14:52:55.003Z,37.45
2022-09-02T14:53:55.041Z,37.74
2022-09-02T14:54:55.074Z,37.45
2022-09-02T14:55:55.101Z,37.35
2022-09-02T14:56:55.134Z,37.35
2022-09-02T14:57:55.165Z,37.35
2022-09-02T14:58:55.197Z,37.55
2022-09-02T14:59:55.229Z,37.45
2022-09-02T15:00:55.264Z,37.26
2022-09-02T15:01:55.358Z,37.35
2022-09-02T15:02:55.319Z,37.07
2022-09-02T15:03:55.617Z,36.99
2022-09-02T15:04:55.467Z,37.18
2022-09-02T15:05:55.421Z,36.79
2022-09-02T15:06:55.466Z,37.08
2022-09-02T15:07:55.481Z,37.16
2022-09-02T15:08:55.516Z,37.16
2022-09-02T15:09:55.548Z,37.45
2022-09-02T15:10:55.580Z,37.35
2022-09-02T15:11:58.593Z,37.84
2022-09-02T15:12:55.639Z,37.92
2022-09-02T15:13:55.674Z,38.40
2022-09-02T15:14:55.708Z,38.50
2022-09-02T15:15:55.795Z,38.21
2022-09-02T15:16:55.772Z,38.40
2022-09-02T15:17:55.801Z,38.31
2022-09-02T15:18:55.830Z,38.42
2022-09-02T15:19:56.577Z,38.52